Tuesday, April 24, 2018, 8:59 PM EDT
Back to Local

KFWN, Sussex Airport

Location: Sussex, NJ, United States Lat: 41.2
Local Time: 8:59 PM EDT ( 0:59 GMT) Lon: -74.633
Time Zone: US/Eastern Elev: 419 ft

Show me the last for .
Show Decoded

2018-04-24 19:53 METAR KFWN 242353Z AUTO 15005KT 10SM SCT047 BKN065 14/06 A3021 RMK AO2 SLP231
                 T01390056 10189 20139 58006 =
2018-04-24 18:53 METAR KFWN 242253Z AUTO 14011KT 10SM FEW049 SCT070 14/06 A3021 RMK AO2 SLP233
                 T01440056 =
2018-04-24 17:53 METAR KFWN 242153Z AUTO 17007KT 10SM CLR 16/06 A3023 RMK AO2 SLP238 T01560056 =
2018-04-24 16:53 METAR KFWN 242053Z AUTO 16008G20KT 10SM CLR 16/06 A3023 RMK AO2 SLP238 T01610056
                 56018 =
2018-04-24 15:53 METAR KFWN 241953Z AUTO 14008G16KT 10SM CLR 18/06 A3024 RMK AO2 SLP241 T01780056
                 =
2018-04-24 14:53 METAR KFWN 241853Z AUTO 17011G16KT 10SM FEW060 18/04 A3026 RMK AO2 SLP249
                 T01830044 =
2018-04-24 13:53 METAR KFWN 241753Z AUTO 14011G16KT 10SM CLR 18/05 A3028 RMK AO2 SLP255 60000
                 T01830050 10189 20044 56026 =
2018-04-24 12:53 METAR KFWN 241653Z AUTO 14012G17KT 10SM CLR 18/04 A3031 RMK AO2 SLP263 T01830044
                 =
2018-04-24 11:53 METAR KFWN 241553Z AUTO 16009G16KT 140V200 10SM CLR 17/03 A3033 RMK AO2 SLP272
                 T01720033 =
2018-04-24 10:53 METAR KFWN 241453Z AUTO 19009G17KT 10SM CLR 16/02 A3036 RMK AO2 SLP281 60000
                 T01610022 56012 =
2018-04-24 09:53 METAR KFWN 241353Z AUTO 21003KT 10SM CLR 14/01 A3037 RMK AO2 RAE01 SLP285 P0000
                 T01440006 =
2018-04-24 08:53 METAR KFWN 241253Z AUTO 00000KT 10SM -RA CLR 11/03 A3038 RMK AO2 RAB47 SLP289
                 P0000 T01060028 =
2018-04-24 07:53 METAR KFWN 241153Z AUTO 00000KT 10SM CLR 04/02 A3040 RMK AO2 SLP294 60000
                 T00440022 10044 21006 51004 =
2018-04-24 06:53 METAR KFWN 241053Z AUTO 00000KT 10SM CLR 00/00 A3039 RMK AO2 UPB0955E12 SLP292
                 P0000 T00000000 =
2018-04-24 05:53 METAR KFWN 240953Z AUTO 00000KT 10SM CLR 00/M02 A3039 RMK AO2 SLP293 T00001017 =
2018-04-24 04:53 METAR KFWN 240853Z AUTO 00000KT 10SM CLR 01/M01 A3038 RMK AO2 SLP290 60000
                 T00061006 56005 =
2018-04-24 03:53 METAR KFWN 240753Z AUTO 26003KT 10SM CLR 02/00 A3039 RMK AO2 RAB17E33 SLP290
                 P0000 T00220000 =
2018-04-24 02:53 METAR KFWN 240653Z AUTO 00000KT 10SM CLR 03/00 A3039 RMK AO2 SLP290 T00280000 =
2018-04-24 01:53 METAR KFWN 240553Z AUTO 00000KT 10SM CLR 04/00 A3040 RMK AO2 SLP294 T00390000
                 10144 20033 57007 =
2018-04-24 00:53 METAR KFWN 240453Z AUTO 00000KT 10SM CLR 04/00 A3041 RMK AO2 SLP297 T00390000
                 402111022 =
2018-04-23 23:53 METAR KFWN 240353Z AUTO 00000KT 10SM CLR 06/01 A3041 RMK AO2 SLP298 T00610006 =
2018-04-23 22:53 METAR KFWN 240253Z AUTO 00000KT 10SM CLR 07/M01 A3042 RMK AO2 SLP301 T00721006
                 50009 =
2018-04-23 21:53 METAR KFWN 240153Z AUTO 00000KT 10SM CLR 11/M02 A3042 RMK AO2 SLP303 T01061022 =

Support USWX by starting your Amazon purchase here.